sensor_id;sensor_type;location;lat;lon;timestamp;pressure;altitude;pressure_sealevel;temperature;humidity
51287;BME280;37364;46.974;18.916;2023-12-29T00:01:02;150499.53;;;0.58;100.00
51287;BME280;37364;46.974;18.916;2023-12-29T00:03:35;150497.00;;;0.57;100.00
51287;BME280;37364;46.974;18.916;2023-12-29T00:06:05;150489.25;;;0.54;100.00
51287;BME280;37364;46.974;18.916;2023-12-29T00:08:36;150491.84;;;0.55;100.00
51287;BME280;37364;46.974;18.916;2023-12-29T00:11:16;150497.00;;;0.57;100.00
51287;BME280;37364;46.974;18.916;2023-12-29T00:13:46;150497.00;;;0.57;100.00
51287;BME280;37364;46.974;18.916;2023-12-29T00:16:16;150489.25;;;0.54;100.00
51287;BME280;37364;46.974;18.916;2023-12-29T00:18:46;150494.41;;;0.56;100.00
51287;BME280;37364;46.974;18.916;2023-12-29T00:21:17;150484.13;;;0.52;100.00
51287;BME280;37364;46.974;18.916;2023-12-29T00:23:48;150493.13;;;0.55;100.00
51287;BME280;37364;46.974;18.916;2023-12-29T00:26:20;150491.84;;;0.55;100.00
51287;BME280;37364;46.974;18.916;2023-12-29T00:28:57;150507.25;;;0.61;100.00
51287;BME280;37364;46.974;18.916;2023-12-29T00:31:27;150499.53;;;0.58;100.00
51287;BME280;37364;46.974;18.916;2023-12-29T00:33:57;150507.25;;;0.61;100.00
51287;BME280;37364;46.974;18.916;2023-12-29T00:36:27;150505.94;;;0.61;100.00
51287;BME280;37364;46.974;18.916;2023-12-29T00:38:57;150505.94;;;0.61;100.00
51287;BME280;37364;46.974;18.916;2023-12-29T00:41:31;150502.13;;;0.59;100.00
51287;BME280;37364;46.974;18.916;2023-12-29T00:44:01;150486.66;;;0.53;100.00
51287;BME280;37364;46.974;18.916;2023-12-29T00:46:31;150480.25;;;0.50;100.00
51287;BME280;37364;46.974;18.916;2023-12-29T00:49:01;150477.72;;;0.49;100.00
51287;BME280;37364;46.974;18.916;2023-12-29T00:51:32;150500.81;;;0.58;100.00
51287;BME280;37364;46.974;18.916;2023-12-29T00:54:02;150500.81;;;0.58;100.00
51287;BME280;37364;46.974;18.916;2023-12-29T00:56:35;150507.25;;;0.61;100.00
51287;BME280;37364;46.974;18.916;2023-12-29T00:59:05;150484.13;;;0.52;100.00
51287;BME280;37364;46.974;18.916;2023-12-29T01:01:35;150472.59;;;0.47;100.00
51287;BME280;37364;46.974;18.916;2023-12-29T01:04:06;150472.59;;;0.47;100.00
51287;BME280;37364;46.974;18.916;2023-12-29T01:06:36;150475.13;;;0.48;100.00
51287;BME280;37364;46.974;18.916;2023-12-29T01:09:07;150471.25;;;0.47;100.00
51287;BME280;37364;46.974;18.916;2023-12-29T01:11:41;150503.41;;;0.59;100.00
51287;BME280;37364;46.974;18.916;2023-12-29T01:14:12;150508.53;;;0.62;100.00
51287;BME280;37364;46.974;18.916;2023-12-29T01:16:43;150534.22;;;0.72;100.00
51287;BME280;37364;46.974;18.916;2023-12-29T01:19:13;150547.09;;;0.77;100.00
51287;BME280;37364;46.974;18.916;2023-12-29T01:21:44;150553.50;;;0.79;100.00
51287;BME280;37364;46.974;18.916;2023-12-29T01:24:14;150581.78;;;0.91;100.00
51287;BME280;37364;46.974;18.916;2023-12-29T01:26:55;150639.66;;;1.14;100.00
51287;BME280;37364;46.974;18.916;2023-12-29T01:29:26;150664.06;;;1.24;100.00
51287;BME280;37364;46.974;18.916;2023-12-29T01:31:58;150676.91;;;1.29;100.00
51287;BME280;37364;46.974;18.916;2023-12-29T01:34:32;150719.34;;;1.46;100.00
51287;BME280;37364;46.974;18.916;2023-12-29T01:37:03;150725.75;;;1.48;100.00
51287;BME280;37364;46.974;18.916;2023-12-29T01:39:34;150764.34;;;1.64;100.00
51287;BME280;37364;46.974;18.916;2023-12-29T01:42:10;150797.81;;;1.77;100.00
51287;BME280;37364;46.974;18.916;2023-12-29T01:44:40;150849.22;;;1.97;100.00
51287;BME280;37364;46.974;18.916;2023-12-29T01:47:15;150858.25;;;2.01;100.00
51287;BME280;37364;46.974;18.916;2023-12-29T01:49:59;150886.56;;;2.12;100.00
51287;BME280;37364;46.974;18.916;2023-12-29T01:52:48;150907.13;;;2.21;100.00
51287;BME280;37364;46.974;18.916;2023-12-29T01:55:59;150913.53;;;2.23;100.00
51287;BME280;37364;46.974;18.916;2023-12-29T01:58:39;150905.84;;;2.20;100.00
51287;BME280;37364;46.974;18.916;2023-12-29T02:01:22;150905.84;;;2.20;100.00
51287;BME280;37364;46.974;18.916;2023-12-29T02:04:23;150890.41;;;2.14;100.00
51287;BME280;37364;46.974;18.916;2023-12-29T02:07:13;150895.56;;;2.16;100.00
51287;BME280;37364;46.974;18.916;2023-12-29T02:10:22;150894.25;;;2.15;100.00
51287;BME280;37364;46.974;18.916;2023-12-29T02:13:10;150880.13;;;2.10;100.00
51287;BME280;37364;46.974;18.916;2023-12-29T02:15:55;150887.81;;;2.13;100.00
51287;BME280;37364;46.974;18.916;2023-12-29T02:18:46;150876.25;;;2.08;100.00
51287;BME280;37364;46.974;18.916;2023-12-29T02:21:30;150864.66;;;2.04;100.00
51287;BME280;37364;46.974;18.916;2023-12-29T02:24:21;150851.81;;;1.98;100.00
51287;BME280;37364;46.974;18.916;2023-12-29T02:27:24;150864.66;;;2.04;100.00
51287;BME280;37364;46.974;18.916;2023-12-29T02:30:12;150853.09;;;1.99;100.00
51287;BME280;37364;46.974;18.916;2023-12-29T02:33:01;150823.50;;;1.87;100.00
51287;BME280;37364;46.974;18.916;2023-12-29T02:35:41;150797.81;;;1.77;100.00
51287;BME280;37364;46.974;18.916;2023-12-29T02:38:21;150799.06;;;1.77;100.00
51287;BME280;37364;46.974;18.916;2023-12-29T02:41:05;150760.47;;;1.62;100.00
51287;BME280;37364;46.974;18.916;2023-12-29T02:43:45;150743.78;;;1.55;100.00
51287;BME280;37364;46.974;18.916;2023-12-29T02:46:17;150736.03;;;1.52;100.00
51287;BME280;37364;46.974;18.916;2023-12-29T02:48:48;150730.91;;;1.50;100.00
51287;BME280;37364;46.974;18.916;2023-12-29T02:51:19;150728.34;;;1.49;100.00
51287;BME280;37364;46.974;18.916;2023-12-29T02:53:54;150720.63;;;1.46;100.00
51287;BME280;37364;46.974;18.916;2023-12-29T02:56:25;150723.22;;;1.47;100.00
51287;BME280;37364;46.974;18.916;2023-12-29T02:59:06;150711.63;;;1.43;100.00
51287;BME280;37364;46.974;18.916;2023-12-29T03:01:37;150683.38;;;1.31;100.00
51287;BME280;37364;46.974;18.916;2023-12-29T03:04:25;150724.50;;;1.48;100.00
51287;BME280;37364;46.974;18.916;2023-12-29T03:06:57;150766.94;;;1.65;100.00
51287;BME280;37364;46.974;18.916;2023-12-29T03:09:28;150774.63;;;1.68;100.00
51287;BME280;37364;46.974;18.916;2023-12-29T03:12:15;150808.09;;;1.81;100.00
51287;BME280;37364;46.974;18.916;2023-12-29T03:15:04;150810.63;;;1.82;100.00
51287;BME280;37364;46.974;18.916;2023-12-29T03:17:47;150850.53;;;1.98;100.00
51287;BME280;37364;46.974;18.916;2023-12-29T03:20:50;150878.81;;;2.09;100.00
51287;BME280;37364;46.974;18.916;2023-12-29T03:23:42;150863.38;;;2.03;100.00
51287;BME280;37364;46.974;18.916;2023-12-29T03:28:16;150885.28;;;2.12;100.00
51287;BME280;37364;46.974;18.916;2023-12-29T03:30:28;150881.41;;;2.10;100.00
51287;BME280;37364;46.974;18.916;2023-12-29T03:33:23;150873.66;;;2.07;100.00
51287;BME280;37364;46.974;18.916;2023-12-29T03:39:49;150891.69;;;2.14;100.00
51287;BME280;37364;46.974;18.916;2023-12-29T03:43:20;150874.94;;;2.08;100.00
51287;BME280;37364;46.974;18.916;2023-12-29T03:47:16;150856.97;;;2.01;100.00
51287;BME280;37364;46.974;18.916;2023-12-29T03:50:32;150850.53;;;1.98;100.00
51287;BME280;37364;46.974;18.916;2023-12-29T03:56:58;150826.09;;;1.88;100.00
51287;BME280;37364;46.974;18.916;2023-12-29T04:02:46;150797.81;;;1.77;100.00
51287;BME280;37364;46.974;18.916;2023-12-29T04:03:42;150831.25;;;1.90;100.00
51287;BME280;37364;46.974;18.916;2023-12-29T04:06:42;150822.25;;;1.87;100.00
51287;BME280;37364;46.974;18.916;2023-12-29T04:13:30;150847.94;;;1.97;100.00
51287;BME280;37364;46.974;18.916;2023-12-29T04:16:01;150867.25;;;2.05;100.00
51287;BME280;37364;46.974;18.916;2023-12-29T04:19:10;150868.53;;;2.05;100.00
51287;BME280;37364;46.974;18.916;2023-12-29T04:22:24;150873.66;;;2.07;100.00
51287;BME280;37364;46.974;18.916;2023-12-29T04:25:29;150867.25;;;2.05;100.00
51287;BME280;37364;46.974;18.916;2023-12-29T04:28:25;150873.66;;;2.07;100.00
51287;BME280;37364;46.974;18.916;2023-12-29T04:35:10;150885.28;;;2.12;100.00
51287;BME280;37364;46.974;18.916;2023-12-29T04:38:06;150850.53;;;1.98;100.00
51287;BME280;37364;46.974;18.916;2023-12-29T04:44:38;150796.53;;;1.76;100.00
51287;BME280;37364;46.974;18.916;2023-12-29T04:47:29;150774.63;;;1.68;100.00
51287;BME280;37364;46.974;18.916;2023-12-29T04:50:25;150799.06;;;1.77;100.00
51287;BME280;37364;46.974;18.916;2023-12-29T04:53:01;150774.63;;;1.68;100.00
51287;BME280;37364;46.974;18.916;2023-12-29T04:59:05;150715.47;;;1.44;100.00
51287;BME280;37364;46.974;18.916;2023-12-29T05:02:18;150688.50;;;1.33;100.00
51287;BME280;37364;46.974;18.916;2023-12-29T05:05:33;150674.34;;;1.28;100.00
51287;BME280;37364;46.974;18.916;2023-12-29T05:08:11;150658.94;;;1.22;100.00
51287;BME280;37364;46.974;18.916;2023-12-29T05:11:18;150647.34;;;1.17;100.00
51287;BME280;37364;46.974;18.916;2023-12-29T05:14:48;150625.50;;;1.08;100.00
51287;BME280;37364;46.974;18.916;2023-12-29T05:21:23;150597.22;;;0.97;100.00
51287;BME280;37364;46.974;18.916;2023-12-29T05:24:08;150599.75;;;0.98;100.00
51287;BME280;37364;46.974;18.916;2023-12-29T05:26:55;150589.47;;;0.94;100.00
51287;BME280;37364;46.974;18.916;2023-12-29T05:29:56;150607.50;;;1.01;100.00
51287;BME280;37364;46.974;18.916;2023-12-29T05:33:02;150586.94;;;0.93;100.00
51287;BME280;37364;46.974;18.916;2023-12-29T05:35:47;150563.78;;;0.84;100.00
51287;BME280;37364;46.974;18.916;2023-12-29T05:38:58;150556.09;;;0.81;100.00
51287;BME280;37364;46.974;18.916;2023-12-29T05:41:52;150550.97;;;0.78;100.00
51287;BME280;37364;46.974;18.916;2023-12-29T05:44:27;150615.22;;;1.04;100.00
51287;BME280;37364;46.974;18.916;2023-12-29T05:47:13;150630.66;;;1.10;100.00
51287;BME280;37364;46.974;18.916;2023-12-29T05:50:10;150602.34;;;0.99;100.00
51287;BME280;37364;46.974;18.916;2023-12-29T05:52:58;150583.06;;;0.91;100.00
51287;BME280;37364;46.974;18.916;2023-12-29T05:56:13;150597.22;;;0.97;100.00
51287;BME280;37364;46.974;18.916;2023-12-29T05:59:06;150604.94;;;1.00;100.00
51287;BME280;37364;46.974;18.916;2023-12-29T06:01:43;150588.22;;;0.93;100.00
51287;BME280;37364;46.974;18.916;2023-12-29T06:04:27;150583.06;;;0.91;100.00
51287;BME280;37364;46.974;18.916;2023-12-29T06:07:30;150553.50;;;0.79;100.00
51287;BME280;37364;46.974;18.916;2023-12-29T06:10:19;150534.22;;;0.72;100.00
51287;BME280;37364;46.974;18.916;2023-12-29T06:13:32;150585.66;;;0.92;100.00
51287;BME280;37364;46.974;18.916;2023-12-29T06:16:36;150628.06;;;1.09;100.00
51287;BME280;37364;46.974;18.916;2023-12-29T06:23:01;150631.91;;;1.11;100.00
51287;BME280;37364;46.974;18.916;2023-12-29T06:27:55;150571.53;;;0.87;100.00
51287;BME280;37364;46.974;18.916;2023-12-29T06:41:45;150484.13;;;0.52;100.00
51287;BME280;37364;46.974;18.916;2023-12-29T07:04:29;150430.16;;;0.30;100.00
51287;BME280;37364;46.974;18.916;2023-12-29T07:07:00;150426.31;;;0.29;100.00
51287;BME280;37364;46.974;18.916;2023-12-29T07:09:33;150417.31;;;0.25;100.00
51287;BME280;37364;46.974;18.916;2023-12-29T07:12:03;150418.63;;;0.26;100.00
51287;BME280;37364;46.974;18.916;2023-12-29T07:14:33;150412.16;;;0.23;100.00
51287;BME280;37364;46.974;18.916;2023-12-29T07:17:04;150414.75;;;0.24;100.00
51287;BME280;37364;46.974;18.916;2023-12-29T07:19:37;150419.91;;;0.26;100.00
51287;BME280;37364;46.974;18.916;2023-12-29T07:22:07;150446.84;;;0.37;100.00
51287;BME280;37364;46.974;18.916;2023-12-29T07:24:37;150486.66;;;0.53;100.00
51287;BME280;37364;46.974;18.916;2023-12-29T07:27:08;150504.69;;;0.60;100.00
51287;BME280;37364;46.974;18.916;2023-12-29T07:29:37;150552.25;;;0.79;100.00
51287;BME280;37364;46.974;18.916;2023-12-29T07:32:08;150526.53;;;0.69;100.00
51287;BME280;37364;46.974;18.916;2023-12-29T07:34:40;150530.38;;;0.70;100.00
51287;BME280;37364;46.974;18.916;2023-12-29T07:37:11;150544.50;;;0.76;100.00
51287;BME280;37364;46.974;18.916;2023-12-29T07:39:41;150557.38;;;0.81;100.00
51287;BME280;37364;46.974;18.916;2023-12-29T07:42:14;150599.75;;;0.98;100.00
51287;BME280;37364;46.974;18.916;2023-12-29T07:44:45;150606.22;;;1.01;100.00
51287;BME280;37364;46.974;18.916;2023-12-29T07:47:15;150612.63;;;1.03;100.00
51287;BME280;37364;46.974;18.916;2023-12-29T07:49:48;150649.94;;;1.18;100.00
51287;BME280;37364;46.974;18.916;2023-12-29T07:52:18;150688.50;;;1.33;100.00
51287;BME280;37364;46.974;18.916;2023-12-29T07:54:48;150669.22;;;1.26;100.00
51287;BME280;37364;46.974;18.916;2023-12-29T07:57:19;150669.22;;;1.26;100.00
51287;BME280;37364;46.974;18.916;2023-12-29T07:59:49;150701.34;;;1.38;100.00
51287;BME280;37364;46.974;18.916;2023-12-29T08:02:18;150714.22;;;1.44;100.00
51287;BME280;37364;46.974;18.916;2023-12-29T08:04:51;150738.66;;;1.53;100.00
51287;BME280;37364;46.974;18.916;2023-12-29T08:07:25;150756.63;;;1.61;100.00
51287;BME280;37364;46.974;18.916;2023-12-29T08:09:55;150805.50;;;1.80;100.00
51287;BME280;37364;46.974;18.916;2023-12-29T08:12:25;150800.34;;;1.78;100.00
51287;BME280;37364;46.974;18.916;2023-12-29T08:14:55;150899.38;;;2.17;100.00
51287;BME280;37364;46.974;18.916;2023-12-29T08:17:25;150932.84;;;2.31;100.00
51287;BME280;37364;46.974;18.916;2023-12-29T08:19:57;151008.81;;;2.61;100.00
51287;BME280;37364;46.974;18.916;2023-12-29T08:22:29;151047.41;;;2.76;100.00
51287;BME280;37364;46.974;18.916;2023-12-29T08:24:59;151098.88;;;2.97;100.00
51287;BME280;37364;46.974;18.916;2023-12-29T08:27:30;151127.22;;;3.08;100.00
51287;BME280;37364;46.974;18.916;2023-12-29T08:30:00;151151.69;;;3.18;100.00
51287;BME280;37364;46.974;18.916;2023-12-29T08:32:37;151199.31;;;3.37;100.00
51287;BME280;37364;46.974;18.916;2023-12-29T08:35:09;151235.38;;;3.51;100.00
51287;BME280;37364;46.974;18.916;2023-12-29T08:37:40;151283.03;;;3.70;100.00
51287;BME280;37364;46.974;18.916;2023-12-29T08:40:10;151304.94;;;3.79;100.00
51287;BME280;37364;46.974;18.916;2023-12-29T08:42:43;151360.31;;;4.01;100.00
51287;BME280;37364;46.974;18.916;2023-12-29T08:45:14;151351.31;;;3.97;100.00
51287;BME280;37364;46.974;18.916;2023-12-29T08:47:44;151379.66;;;4.09;100.00
51287;BME280;37364;46.974;18.916;2023-12-29T08:50:16;151404.13;;;4.19;100.00
51287;BME280;37364;46.974;18.916;2023-12-29T08:52:49;151453.13;;;4.38;100.00
51287;BME280;37364;46.974;18.916;2023-12-29T08:55:19;151462.16;;;4.42;100.00
51287;BME280;37364;46.974;18.916;2023-12-29T08:57:49;151466.03;;;4.43;100.00
51287;BME280;37364;46.974;18.916;2023-12-29T09:00:19;151487.91;;;4.52;100.00
51287;BME280;37364;46.974;18.916;2023-12-29T09:02:49;151522.72;;;4.66;100.00
51287;BME280;37364;46.974;18.916;2023-12-29T09:05:28;151522.72;;;4.66;100.00
51287;BME280;37364;46.974;18.916;2023-12-29T09:07:58;151536.91;;;4.71;100.00
51287;BME280;37364;46.974;18.916;2023-12-29T09:10:29;151552.34;;;4.78;100.00
51287;BME280;37364;46.974;18.916;2023-12-29T09:13:04;151565.28;;;4.83;100.00
51287;BME280;37364;46.974;18.916;2023-12-29T09:15:46;151601.34;;;4.97;100.00
51287;BME280;37364;46.974;18.916;2023-12-29T09:18:16;151625.84;;;5.07;100.00
51287;BME280;37364;46.974;18.916;2023-12-29T09:20:49;151655.50;;;5.19;100.00
51287;BME280;37364;46.974;18.916;2023-12-29T09:23:21;151677.47;;;5.27;100.00
51287;BME280;37364;46.974;18.916;2023-12-29T09:25:54;151691.59;;;5.33;100.00
51287;BME280;37364;46.974;18.916;2023-12-29T09:28:32;151707.13;;;5.39;100.00
51287;BME280;37364;46.974;18.916;2023-12-29T09:31:23;151741.94;;;5.53;100.00
51287;BME280;37364;46.974;18.916;2023-12-29T09:33:56;151759.97;;;5.60;100.00
51287;BME280;37364;46.974;18.916;2023-12-29T09:36:31;151771.63;;;5.65;100.00
51287;BME280;37364;46.974;18.916;2023-12-29T09:39:06;151784.50;;;5.70;100.00
51287;BME280;37364;46.974;18.916;2023-12-29T09:41:47;151758.69;;;5.60;100.00
51287;BME280;37364;46.974;18.916;2023-12-29T09:45:09;151772.91;;;5.65;100.00
51287;BME280;37364;46.974;18.916;2023-12-29T09:51:35;151827.09;;;5.87;100.00
51287;BME280;37364;46.974;18.916;2023-12-29T09:54:15;151825.81;;;5.86;100.00
51287;BME280;37364;46.974;18.916;2023-12-29T09:58:18;151898.09;;;6.15;100.00
51287;BME280;37364;46.974;18.916;2023-12-29T10:04:44;151949.72;;;6.36;100.00
51287;BME280;37364;46.974;18.916;2023-12-29T10:07:47;151985.88;;;6.50;100.00
51287;BME280;37364;46.974;18.916;2023-12-29T10:10:39;152014.28;;;6.61;100.00
51287;BME280;37364;46.974;18.916;2023-12-29T10:13:51;152046.53;;;6.74;100.00
51287;BME280;37364;46.974;18.916;2023-12-29T10:17:00;152086.59;;;6.90;100.00
51287;BME280;37364;46.974;18.916;2023-12-29T10:20:15;152125.28;;;7.05;100.00
51287;BME280;37364;46.974;18.916;2023-12-29T10:23:32;152133.06;;;7.08;100.00
51287;BME280;37364;46.974;18.916;2023-12-29T10:26:28;152127.91;;;7.06;100.00
51287;BME280;37364;46.974;18.916;2023-12-29T10:29:56;152167.94;;;7.22;100.00
51287;BME280;37364;46.974;18.916;2023-12-29T10:32:52;152223.47;;;7.44;100.00
51287;BME280;37364;46.974;18.916;2023-12-29T10:39:28;152288.06;;;7.70;100.00
51287;BME280;37364;46.974;18.916;2023-12-29T10:42:17;152289.38;;;7.70;100.00
51287;BME280;37364;46.974;18.916;2023-12-29T10:45:10;152348.81;;;7.94;100.00
51287;BME280;37364;46.974;18.916;2023-12-29T10:47:55;152377.22;;;8.05;100.00
51287;BME280;37364;46.974;18.916;2023-12-29T10:50:39;152388.88;;;8.10;100.00
51287;BME280;37364;46.974;18.916;2023-12-29T10:56:34;152438.00;;;8.29;100.00
51287;BME280;37364;46.974;18.916;2023-12-29T10:59:09;152445.72;;;8.32;100.00
51287;BME280;37364;46.974;18.916;2023-12-29T11:02:03;152452.22;;;8.35;100.00
51287;BME280;37364;46.974;18.916;2023-12-29T11:04:45;152497.50;;;8.53;100.00
51287;BME280;37364;46.974;18.916;2023-12-29T11:07:52;152500.06;;;8.54;100.00
51287;BME280;37364;46.974;18.916;2023-12-29T11:10:40;152503.94;;;8.56;100.00
51287;BME280;37364;46.974;18.916;2023-12-29T11:13:19;152536.28;;;8.68;100.00
51287;BME280;37364;46.974;18.916;2023-12-29T11:15:55;152528.50;;;8.65;100.00
51287;BME280;37364;46.974;18.916;2023-12-29T11:18:34;152518.19;;;8.61;100.00
51287;BME280;37364;46.974;18.916;2023-12-29T11:21:13;152566.03;;;8.80;100.00
51287;BME280;37364;46.974;18.916;2023-12-29T11:23:45;152585.44;;;8.88;100.00
51287;BME280;37364;46.974;18.916;2023-12-29T11:26:16;152581.53;;;8.86;100.00
51287;BME280;37364;46.974;18.916;2023-12-29T11:28:55;152589.28;;;8.89;100.00
51287;BME280;37364;46.974;18.916;2023-12-29T11:31:28;152598.34;;;8.93;100.00
51287;BME280;37364;46.974;18.916;2023-12-29T11:34:09;152629.34;;;9.05;100.00
51287;BME280;37364;46.974;18.916;2023-12-29T11:36:50;152597.06;;;8.93;100.00
51287;BME280;37364;46.974;18.916;2023-12-29T11:39:33;152624.19;;;9.03;100.00
51287;BME280;37364;46.974;18.916;2023-12-29T11:42:21;152661.72;;;9.18;100.00
51287;BME280;37364;46.974;18.916;2023-12-29T11:44:59;152639.75;;;9.09;100.00
51287;BME280;37364;46.974;18.916;2023-12-29T11:47:48;152672.06;;;9.22;100.00
51287;BME280;37364;46.974;18.916;2023-12-29T11:50:33;152682.41;;;9.26;100.00
51287;BME280;37364;46.974;18.916;2023-12-29T11:53:05;152701.81;;;9.34;100.00
51287;BME280;37364;46.974;18.916;2023-12-29T11:55:41;152719.94;;;9.41;100.00
51287;BME280;37364;46.974;18.916;2023-12-29T11:58:24;152723.81;;;9.43;100.00
51287;BME280;37364;46.974;18.916;2023-12-29T12:01:11;152716.03;;;9.40;100.00
51287;BME280;37364;46.974;18.916;2023-12-29T12:03:46;152709.59;;;9.37;100.00
51287;BME280;37364;46.974;18.916;2023-12-29T12:06:39;152727.66;;;9.44;100.00
51287;BME280;37364;46.974;18.916;2023-12-29T12:09:16;152727.66;;;9.44;100.00
51287;BME280;37364;46.974;18.916;2023-12-29T12:11:52;152725.09;;;9.43;100.00
51287;BME280;37364;46.974;18.916;2023-12-29T12:14:44;152736.75;;;9.48;100.00
51287;BME280;37364;46.974;18.916;2023-12-29T12:17:34;152736.75;;;9.48;100.00
51287;BME280;37364;46.974;18.916;2023-12-29T12:20:07;152736.75;;;9.48;100.00
51287;BME280;37364;46.974;18.916;2023-12-29T12:22:41;152743.19;;;9.50;100.00
51287;BME280;37364;46.974;18.916;2023-12-29T12:25:16;152757.44;;;9.56;100.00
51287;BME280;37364;46.974;18.916;2023-12-29T12:28:06;152762.59;;;9.58;100.00
51287;BME280;37364;46.974;18.916;2023-12-29T12:30:39;152766.50;;;9.60;100.00
51287;BME280;37364;46.974;18.916;2023-12-29T12:33:23;152761.31;;;9.58;100.00
51287;BME280;37364;46.974;18.916;2023-12-29T12:36:01;152769.09;;;9.61;100.00
51287;BME280;37364;46.974;18.916;2023-12-29T12:38:53;152785.91;;;9.67;100.00
51287;BME280;37364;46.974;18.916;2023-12-29T12:41:27;152796.25;;;9.72;100.00
51287;BME280;37364;46.974;18.916;2023-12-29T12:44:01;152797.53;;;9.72;100.00
51287;BME280;37364;46.974;18.916;2023-12-29T12:46:49;152783.34;;;9.66;100.00
51287;BME280;37364;46.974;18.916;2023-12-29T12:49:28;152793.69;;;9.70;100.00
51287;BME280;37364;46.974;18.916;2023-12-29T12:52:01;152807.94;;;9.76;100.00
51287;BME280;37364;46.974;18.916;2023-12-29T12:54:44;152820.84;;;9.81;100.00
51287;BME280;37364;46.974;18.916;2023-12-29T12:57:21;152806.59;;;9.76;100.00
51287;BME280;37364;46.974;18.916;2023-12-29T13:00:14;152771.66;;;9.62;100.00
51287;BME280;37364;46.974;18.916;2023-12-29T13:02:57;152782.00;;;9.66;100.00
51287;BME280;37364;46.974;18.916;2023-12-29T13:05:36;152788.50;;;9.68;100.00
51287;BME280;37364;46.974;18.916;2023-12-29T13:08:07;152770.38;;;9.61;100.00
51287;BME280;37364;46.974;18.916;2023-12-29T13:10:41;152800.13;;;9.73;100.00
51287;BME280;37364;46.974;18.916;2023-12-29T13:13:12;152796.25;;;9.72;100.00
51287;BME280;37364;46.974;18.916;2023-12-29T13:16:00;152774.28;;;9.63;100.00
51287;BME280;37364;46.974;18.916;2023-12-29T13:18:54;152767.78;;;9.60;100.00
51287;BME280;37364;46.974;18.916;2023-12-29T13:21:41;152771.66;;;9.62;100.00
51287;BME280;37364;46.974;18.916;2023-12-29T13:24:17;152772.94;;;9.62;100.00
51287;BME280;37364;46.974;18.916;2023-12-29T13:26:52;152771.66;;;9.62;100.00
51287;BME280;37364;46.974;18.916;2023-12-29T13:29:39;152749.69;;;9.53;100.00
51287;BME280;37364;46.974;18.916;2023-12-29T13:32:15;152750.97;;;9.54;100.00
51287;BME280;37364;46.974;18.916;2023-12-29T13:35:08;152771.66;;;9.62;100.00
51287;BME280;37364;46.974;18.916;2023-12-29T13:37:47;152740.63;;;9.49;100.00
51287;BME280;37364;46.974;18.916;2023-12-29T13:40:25;152723.81;;;9.43;100.00
51287;BME280;37364;46.974;18.916;2023-12-29T13:42:59;152706.97;;;9.36;100.00
51287;BME280;37364;46.974;18.916;2023-12-29T13:45:39;152690.19;;;9.29;100.00
51287;BME280;37364;46.974;18.916;2023-12-29T13:48:11;152694.06;;;9.31;100.00
51287;BME280;37364;46.974;18.916;2023-12-29T13:50:58;152692.75;;;9.30;100.00
51287;BME280;37364;46.974;18.916;2023-12-29T13:53:35;152686.28;;;9.28;100.00
51287;BME280;37364;46.974;18.916;2023-12-29T13:56:06;152655.25;;;9.16;100.00
51287;BME280;37364;46.974;18.916;2023-12-29T13:58:39;152653.94;;;9.15;100.00
51287;BME280;37364;46.974;18.916;2023-12-29T14:01:15;152634.53;;;9.07;100.00
51287;BME280;37364;46.974;18.916;2023-12-29T14:03:51;152644.91;;;9.12;100.00
51287;BME280;37364;46.974;18.916;2023-12-29T14:07:04;152643.59;;;9.11;100.00
51287;BME280;37364;46.974;18.916;2023-12-29T14:09:45;152606.13;;;8.96;100.00
51287;BME280;37364;46.974;18.916;2023-12-29T14:12:30;152589.28;;;8.89;100.00
51287;BME280;37364;46.974;18.916;2023-12-29T14:15:06;152567.31;;;8.81;100.00
51287;BME280;37364;46.974;18.916;2023-12-29T14:17:57;152577.66;;;8.85;100.00
51287;BME280;37364;46.974;18.916;2023-12-29T14:20:40;152588.00;;;8.89;100.00
51287;BME280;37364;46.974;18.916;2023-12-29T14:23:20;152545.31;;;8.72;100.00
51287;BME280;37364;46.974;18.916;2023-12-29T14:25:53;152510.41;;;8.58;100.00
51287;BME280;37364;46.974;18.916;2023-12-29T14:28:44;152485.84;;;8.48;100.00
51287;BME280;37364;46.974;18.916;2023-12-29T14:31:14;152459.94;;;8.38;100.00
51287;BME280;37364;46.974;18.916;2023-12-29T14:34:08;152470.31;;;8.42;100.00
51287;BME280;37364;46.974;18.916;2023-12-29T14:36:47;152436.66;;;8.29;100.00
51287;BME280;37364;46.974;18.916;2023-12-29T14:39:26;152456.06;;;8.37;100.00
51287;BME280;37364;46.974;18.916;2023-12-29T14:41:59;152444.44;;;8.32;100.00
51287;BME280;37364;46.974;18.916;2023-12-29T14:44:32;152390.16;;;8.10;100.00
51287;BME280;37364;46.974;18.916;2023-12-29T14:47:03;152350.09;;;7.95;100.00
51287;BME280;37364;46.974;18.916;2023-12-29T14:49:36;152316.50;;;7.81;100.00
51287;BME280;37364;46.974;18.916;2023-12-29T14:52:12;152279.03;;;7.66;100.00
51287;BME280;37364;46.974;18.916;2023-12-29T14:54:48;152238.94;;;7.50;100.00
51287;BME280;37364;46.974;18.916;2023-12-29T14:57:24;152213.13;;;7.40;100.00
51287;BME280;37364;46.974;18.916;2023-12-29T14:59:57;152205.41;;;7.37;100.00
51287;BME280;37364;46.974;18.916;2023-12-29T15:02:41;152170.53;;;7.23;100.00
51287;BME280;37364;46.974;18.916;2023-12-29T15:05:13;152143.38;;;7.12;100.00
51287;BME280;37364;46.974;18.916;2023-12-29T15:07:51;152116.28;;;7.02;100.00
51287;BME280;37364;46.974;18.916;2023-12-29T15:10:21;152089.16;;;6.91;100.00
51287;BME280;37364;46.974;18.916;2023-12-29T15:12:54;152051.69;;;6.76;100.00
51287;BME280;37364;46.974;18.916;2023-12-29T15:15:34;152015.56;;;6.62;100.00